Time;durP1;ratioP1;P1;durP2;ratioP2;P2;SDS_P1;SDS_P2;PMS_P1;PMS_P2;Temp;Humidity;BMP_temperature;BMP_pressure;BME280_temperature;BME280_humidity;BME280_pressure;Samples;Min_cycle;Max_cycle;Signal;HPM_P1;HPM_P2
2023/12/03 00:02:12;;;;;;;79.10;28.02;;;0.80;99.90;;;;;;5021960;28;20033;-90
2023/12/03 00:04:38;;;;;;;76.05;27.30;;;0.80;99.90;;;;;;5022133;28;20501;-91
2023/12/03 00:07:04;;;;;;;79.70;28.15;;;0.70;99.90;;;;;;5033696;28;20052;-90
2023/12/03 00:09:29;;;;;;;73.93;26.63;;;0.70;99.90;;;;;;5019073;28;20017;-91
2023/12/03 00:11:55;;;;;;;80.85;26.00;;;0.70;99.90;;;;;;5033182;28;20042;-90
2023/12/03 00:14:20;;;;;;;85.28;29.63;;;0.70;99.90;;;;;;5033202;28;20037;-90
2023/12/03 00:16:46;;;;;;;79.00;28.05;;;0.70;99.90;;;;;;5032007;28;20017;-90
2023/12/03 00:19:12;;;;;;;91.90;28.85;;;0.80;99.90;;;;;;5033561;28;20150;-91
2023/12/03 00:21:37;;;;;;;90.45;27.65;;;0.70;99.90;;;;;;5019227;28;20025;-90
2023/12/03 00:24:03;;;;;;;72.68;22.60;;;0.70;99.90;;;;;;5033848;28;20464;-91
2023/12/03 00:26:29;;;;;;;93.38;28.05;;;0.80;99.90;;;;;;5014299;28;20207;-91
2023/12/03 00:28:55;;;;;;;89.25;26.35;;;0.70;99.90;;;;;;5006249;28;20017;-91
2023/12/03 00:31:20;;;;;;;90.38;27.73;;;0.70;99.90;;;;;;5011755;28;20075;-90
2023/12/03 00:33:46;;;;;;;90.65;26.85;;;0.80;99.90;;;;;;5023008;28;20029;-90
2023/12/03 00:36:11;;;;;;;88.13;27.10;;;0.80;99.90;;;;;;5021433;28;20036;-90
2023/12/03 00:38:37;;;;;;;89.80;25.15;;;0.80;99.90;;;;;;5030373;28;20116;-90
2023/12/03 00:41:02;;;;;;;101.90;28.67;;;0.80;99.90;;;;;;5028591;28;20464;-90
2023/12/03 00:43:28;;;;;;;105.50;29.55;;;0.90;99.90;;;;;;5023664;28;20112;-90
2023/12/03 00:45:54;;;;;;;106.72;28.75;;;0.90;99.90;;;;;;5016165;28;20056;-91
2023/12/03 00:48:20;;;;;;;95.18;27.25;;;0.90;99.90;;;;;;5010349;28;20080;-90
2023/12/03 00:50:45;;;;;;;86.32;26.48;;;0.90;99.90;;;;;;5017513;28;20116;-90
2023/12/03 00:53:11;;;;;;;109.68;31.08;;;0.90;99.90;;;;;;5029435;28;20109;-90
2023/12/03 00:55:36;;;;;;;95.22;28.13;;;0.90;99.90;;;;;;5021571;28;20021;-90
2023/12/03 00:58:02;;;;;;;91.00;26.98;;;0.90;99.90;;;;;;5018779;28;20071;-90
2023/12/03 01:00:28;;;;;;;96.40;30.02;;;0.90;99.90;;;;;;5017659;28;20025;-90
2023/12/03 01:02:53;;;;;;;98.57;29.88;;;1.00;99.90;;;;;;5024244;28;20037;-90
2023/12/03 01:05:19;;;;;;;101.05;30.17;;;1.00;99.90;;;;;;5025401;28;20089;-90
2023/12/03 01:07:44;;;;;;;95.75;28.58;;;1.00;99.90;;;;;;5017957;28;20394;-90
2023/12/03 01:10:10;;;;;;;98.70;29.15;;;1.00;99.90;;;;;;5021580;28;20112;-90
2023/12/03 01:12:35;;;;;;;101.85;29.65;;;1.00;99.90;;;;;;5014678;28;20021;-90
2023/12/03 01:15:02;;;;;;;97.95;29.00;;;1.10;99.90;;;;;;5024714;28;20030;-90
2023/12/03 01:17:27;;;;;;;91.80;29.55;;;1.10;99.90;;;;;;5025852;28;20120;-90
2023/12/03 01:19:53;;;;;;;95.25;30.45;;;1.10;99.90;;;;;;5017364;28;20116;-90
2023/12/03 01:22:18;;;;;;;88.70;27.92;;;1.10;99.90;;;;;;5014203;28;20029;-90
2023/12/03 01:24:44;;;;;;;97.50;30.02;;;1.20;99.90;;;;;;5020201;28;20017;-89
2023/12/03 01:27:09;;;;;;;79.25;29.33;;;1.20;99.90;;;;;;5016077;28;20029;-91
2023/12/03 01:29:35;;;;;;;81.90;26.70;;;1.20;99.90;;;;;;5014683;28;20061;-90
2023/12/03 01:32:01;;;;;;;85.07;28.00;;;1.30;99.90;;;;;;5012172;28;20021;-92
2023/12/03 01:34:26;;;;;;;85.95;27.08;;;1.20;99.90;;;;;;5010210;28;20030;-90
2023/12/03 01:36:52;;;;;;;70.22;26.05;;;1.30;99.90;;;;;;5012872;28;20037;-90
2023/12/03 01:39:17;;;;;;;84.50;28.13;;;1.30;99.90;;;;;;5013318;28;20041;-89
2023/12/03 01:41:43;;;;;;;76.25;27.60;;;1.30;99.90;;;;;;5012269;28;20025;-90
2023/12/03 01:44:08;;;;;;;87.50;29.58;;;1.30;99.90;;;;;;5013508;28;20477;-90
2023/12/03 01:46:34;;;;;;;79.85;27.40;;;1.30;99.90;;;;;;5017366;28;20029;-90
2023/12/03 01:49:00;;;;;;;76.25;28.13;;;1.40;99.90;;;;;;5011397;28;20037;-90
2023/12/03 01:51:26;;;;;;;77.15;28.88;;;1.40;99.90;;;;;;5027480;28;20025;-90
2023/12/03 01:53:53;;;;;;;81.10;28.58;;;1.40;99.90;;;;;;5014666;28;20033;-90
2023/12/03 01:56:18;;;;;;;76.68;26.63;;;1.50;99.90;;;;;;5014121;28;20051;-90
2023/12/03 01:58:44;;;;;;;85.90;29.48;;;1.50;99.90;;;;;;5020411;28;20093;-90
2023/12/03 02:01:10;;;;;;;75.47;26.23;;;1.50;99.90;;;;;;5019034;28;20029;-90
2023/12/03 02:03:35;;;;;;;78.82;27.98;;;1.50;99.90;;;;;;5014135;28;20023;-90
2023/12/03 02:06:06;;;;;;;77.15;26.73;;;1.60;99.90;;;;;;5016709;28;20120;-90
2023/12/03 02:08:32;;;;;;;86.07;30.05;;;1.60;99.90;;;;;;5019974;28;20065;-90
2023/12/03 02:10:59;;;;;;;83.03;29.63;;;1.60;99.90;;;;;;5019654;28;20394;-90
2023/12/03 02:13:27;;;;;;;84.53;30.25;;;1.60;99.90;;;;;;5013005;28;20029;-90
2023/12/03 02:15:53;;;;;;;71.18;26.42;;;1.60;99.90;;;;;;5015054;28;20489;-90
2023/12/03 02:18:19;;;;;;;77.82;29.45;;;1.70;99.90;;;;;;5013596;28;20026;-90
2023/12/03 02:20:44;;;;;;;80.60;30.67;;;1.70;99.90;;;;;;5031612;28;20022;-90
2023/12/03 02:23:10;;;;;;;73.60;28.63;;;1.70;99.90;;;;;;5019757;28;20036;-90
2023/12/03 02:25:36;;;;;;;76.32;28.05;;;1.70;99.90;;;;;;5014800;28;20058;-90
2023/12/03 02:28:01;;;;;;;81.93;29.58;;;1.80;99.90;;;;;;5030822;28;20110;-90
2023/12/03 02:30:27;;;;;;;82.05;30.00;;;1.80;99.90;;;;;;5014233;28;20033;-91
2023/12/03 02:32:52;;;;;;;77.75;30.00;;;1.80;99.90;;;;;;5005519;28;20030;-91
2023/12/03 02:35:18;;;;;;;78.38;30.58;;;1.80;99.90;;;;;;5016847;28;20048;-91
2023/12/03 02:37:44;;;;;;;74.65;30.85;;;1.80;99.90;;;;;;5014858;28;20124;-91
2023/12/03 02:40:10;;;;;;;72.63;30.77;;;1.80;99.90;;;;;;5014517;28;20021;-89
2023/12/03 02:42:35;;;;;;;76.60;30.60;;;1.90;99.90;;;;;;5014112;28;20044;-89
2023/12/03 02:45:01;;;;;;;71.32;30.00;;;1.90;99.90;;;;;;5012531;28;20049;-91
2023/12/03 02:47:26;;;;;;;71.15;29.40;;;1.90;99.90;;;;;;5013466;28;20042;-90
2023/12/03 02:49:52;;;;;;;72.32;29.52;;;1.90;99.90;;;;;;5017511;28;20083;-90
2023/12/03 02:52:17;;;;;;;64.95;29.63;;;1.90;99.90;;;;;;5017088;28;20041;-90
2023/12/03 02:54:43;;;;;;;67.05;30.05;;;2.00;99.90;;;;;;5015894;28;20022;-89
2023/12/03 02:57:08;;;;;;;67.70;29.00;;;2.00;99.90;;;;;;5017351;28;20112;-91
2023/12/03 02:59:34;;;;;;;69.80;30.05;;;2.00;99.90;;;;;;5016386;28;20463;-90
2023/12/03 03:01:59;;;;;;;60.90;27.70;;;2.00;99.90;;;;;;5017459;28;20063;-91
2023/12/03 03:04:25;;;;;;;60.50;28.15;;;2.00;99.90;;;;;;5019908;28;20116;-90
2023/12/03 03:06:50;;;;;;;62.63;29.98;;;2.00;99.90;;;;;;5017214;28;20041;-89
2023/12/03 03:09:16;;;;;;;65.25;30.02;;;2.00;99.90;;;;;;5017189;28;20084;-90
2023/12/03 03:11:42;;;;;;;64.95;29.30;;;2.00;99.90;;;;;;5027872;28;20104;-90
2023/12/03 03:14:07;;;;;;;69.22;30.13;;;2.10;99.90;;;;;;5016604;28;20034;-90
2023/12/03 03:16:34;;;;;;;59.80;27.33;;;2.10;99.90;;;;;;5022125;28;20025;-90
2023/12/03 03:18:59;;;;;;;60.25;29.83;;;2.10;99.90;;;;;;5017231;28;20043;-90
2023/12/03 03:21:25;;;;;;;60.70;27.70;;;2.10;99.90;;;;;;5015662;28;20026;-90
2023/12/03 03:23:51;;;;;;;60.42;26.92;;;2.10;99.90;;;;;;5018268;28;20101;-90
2023/12/03 03:26:16;;;;;;;61.97;26.42;;;2.10;99.90;;;;;;5018350;28;20500;-90
2023/12/03 03:28:42;;;;;;;56.63;26.73;;;2.10;99.90;;;;;;5020043;28;20036;-90
2023/12/03 03:31:07;;;;;;;54.13;25.45;;;2.10;99.90;;;;;;5015602;28;20075;-90
2023/12/03 03:33:33;;;;;;;56.13;25.88;;;2.10;99.90;;;;;;5014508;28;20025;-90
2023/12/03 03:35:58;;;;;;;55.15;25.63;;;2.10;99.90;;;;;;5018685;28;20045;-90
2023/12/03 03:38:25;;;;;;;55.40;27.13;;;2.10;99.90;;;;;;5015927;28;20056;-89
2023/12/03 03:40:50;;;;;;;53.88;26.25;;;2.10;99.90;;;;;;5016599;28;20037;-90
2023/12/03 03:43:16;;;;;;;56.42;25.73;;;2.10;99.90;;;;;;5016645;28;20481;-90
2023/12/03 03:45:41;;;;;;;50.28;24.27;;;2.10;99.90;;;;;;5033079;28;20414;-90
2023/12/03 03:48:07;;;;;;;49.05;23.52;;;2.10;99.90;;;;;;5018007;28;20040;-90
2023/12/03 03:50:33;;;;;;;53.20;23.58;;;2.10;99.90;;;;;;5019392;28;20405;-90
2023/12/03 03:52:59;;;;;;;49.85;24.58;;;2.10;99.90;;;;;;5014471;28;20033;-90
2023/12/03 03:55:24;;;;;;;53.25;24.77;;;2.00;99.90;;;;;;5028683;28;20021;-89
2023/12/03 03:57:50;;;;;;;51.97;23.60;;;2.00;99.90;;;;;;5014410;28;20123;-90
2023/12/03 04:00:16;;;;;;;44.15;22.88;;;2.00;99.90;;;;;;5015517;28;20053;-90
2023/12/03 04:02:41;;;;;;;48.53;22.63;;;2.00;99.90;;;;;;5010526;28;20021;-90
2023/12/03 04:05:07;;;;;;;49.72;24.33;;;2.00;99.90;;;;;;5016436;28;20063;-90
2023/12/03 04:07:33;;;;;;;45.88;23.70;;;2.00;99.90;;;;;;5013285;28;20060;-90
2023/12/03 04:09:59;;;;;;;44.97;21.98;;;1.90;99.90;;;;;;5016454;28;20065;-90
2023/12/03 04:12:24;;;;;;;45.75;23.33;;;1.90;99.90;;;;;;5015017;28;20049;-90
2023/12/03 04:14:50;;;;;;;45.30;22.52;;;1.80;99.90;;;;;;5019179;28;20026;-90
2023/12/03 04:17:16;;;;;;;42.83;21.88;;;1.70;99.90;;;;;;5017215;28;20033;-90
2023/12/03 04:19:41;;;;;;;44.75;21.90;;;1.60;99.90;;;;;;5017294;28;20496;-89
2023/12/03 04:22:07;;;;;;;46.67;22.85;;;1.50;99.90;;;;;;5024094;28;20100;-90
2023/12/03 04:24:33;;;;;;;48.70;22.10;;;1.40;99.90;;;;;;5016271;28;20032;-90
2023/12/03 04:26:58;;;;;;;50.17;22.85;;;1.30;99.90;;;;;;5021896;28;20037;-90
2023/12/03 04:29:24;;;;;;;52.15;24.17;;;1.20;99.90;;;;;;5013197;28;20025;-90
2023/12/03 04:31:50;;;;;;;53.80;23.83;;;1.10;99.90;;;;;;5014181;28;20037;-90
2023/12/03 04:34:16;;;;;;;47.00;22.65;;;1.10;99.90;;;;;;5033405;28;20022;-90
2023/12/03 04:36:44;;;;;;;55.47;24.45;;;1.10;99.90;;;;;;5032890;28;20040;-90
2023/12/03 04:39:10;;;;;;;56.10;25.02;;;1.10;99.90;;;;;;5013656;28;20393;-90
2023/12/03 04:41:37;;;;;;;59.95;26.52;;;1.10;99.90;;;;;;5013875;28;20033;-90
2023/12/03 04:44:04;;;;;;;50.30;24.63;;;1.20;99.90;;;;;;5026067;28;20524;-90
2023/12/03 04:46:30;;;;;;;61.35;26.55;;;1.20;99.90;;;;;;5032330;28;20033;-89
2023/12/03 04:48:55;;;;;;;66.72;24.92;;;1.20;99.90;;;;;;5013751;28;20032;-90
2023/12/03 04:51:21;;;;;;;55.08;25.38;;;1.20;99.90;;;;;;5031805;28;20025;-90
2023/12/03 04:53:47;;;;;;;61.05;24.42;;;1.20;99.90;;;;;;5032865;28;20022;-89
2023/12/03 04:56:12;;;;;;;56.83;24.27;;;1.20;99.90;;;;;;5032861;28;20029;-88
2023/12/03 04:58:38;;;;;;;57.47;24.95;;;1.20;99.90;;;;;;5014329;28;20036;-90
2023/12/03 05:01:04;;;;;;;50.50;24.70;;;1.20;99.90;;;;;;5015623;28;20029;-90
2023/12/03 05:03:29;;;;;;;56.40;25.95;;;1.20;99.90;;;;;;5014219;28;20066;-90
2023/12/03 05:05:55;;;;;;;54.13;24.70;;;1.20;99.90;;;;;;4999704;28;20034;-89
2023/12/03 05:08:20;;;;;;;55.30;25.00;;;1.30;99.90;;;;;;5011997;28;20406;-90
2023/12/03 05:10:46;;;;;;;56.30;23.83;;;1.30;99.90;;;;;;5003676;28;20026;-90
2023/12/03 05:13:14;;;;;;;56.10;25.00;;;1.30;99.90;;;;;;5023361;28;20040;-90
2023/12/03 05:15:40;;;;;;;53.03;24.85;;;1.30;99.90;;;;;;5016419;28;20072;-89
2023/12/03 05:18:05;;;;;;;54.10;24.92;;;1.30;99.90;;;;;;5022091;28;20029;-90
2023/12/03 05:20:32;;;;;;;55.22;24.17;;;1.30;99.90;;;;;;5012469;28;20162;-89
2023/12/03 05:22:57;;;;;;;53.70;23.65;;;1.30;99.90;;;;;;5027013;28;20036;-89
2023/12/03 05:25:23;;;;;;;52.08;22.58;;;1.30;99.90;;;;;;5009403;28;20030;-90
2023/12/03 05:27:49;;;;;;;49.70;22.73;;;1.30;99.90;;;;;;5013582;28;20088;-90
2023/12/03 05:30:15;;;;;;;47.33;22.00;;;1.20;99.90;;;;;;5014223;28;20025;-90
2023/12/03 05:32:42;;;;;;;48.78;22.23;;;1.20;99.90;;;;;;5012692;28;20060;-90
2023/12/03 05:35:08;;;;;;;52.10;22.45;;;1.10;99.90;;;;;;5022146;28;20059;-89
2023/12/03 05:37:33;;;;;;;55.33;23.92;;;1.00;99.90;;;;;;5013701;28;20033;-90
2023/12/03 05:39:59;;;;;;;48.42;23.17;;;0.90;99.90;;;;;;5012947;28;20053;-90
2023/12/03 05:42:25;;;;;;;47.85;22.33;;;0.80;99.90;;;;;;5013689;28;20468;-90
2023/12/03 05:44:50;;;;;;;50.90;21.98;;;0.80;99.90;;;;;;5018150;28;20030;-89
2023/12/03 05:47:16;;;;;;;50.05;23.88;;;0.60;99.90;;;;;;5014246;28;20401;-90
2023/12/03 05:49:41;;;;;;;48.20;22.52;;;0.50;99.90;;;;;;5015136;28;20394;-90
2023/12/03 05:52:07;;;;;;;49.38;23.00;;;0.40;99.90;;;;;;5012864;28;20433;-90
2023/12/03 05:54:33;;;;;;;57.17;24.50;;;0.40;99.90;;;;;;5008603;28;20025;-90
2023/12/03 05:56:59;;;;;;;51.63;23.67;;;0.30;99.90;;;;;;5004004;28;20034;-90
2023/12/03 05:59:25;;;;;;;49.45;21.80;;;0.30;99.90;;;;;;5012117;28;20070;-90
2023/12/03 06:01:51;;;;;;;57.95;25.35;;;0.20;99.90;;;;;;5013847;28;20396;-90
2023/12/03 06:04:17;;;;;;;50.60;22.15;;;0.10;99.90;;;;;;5010229;28;20018;-89
2023/12/03 06:06:43;;;;;;;56.17;23.70;;;0.10;99.90;;;;;;5013981;28;20049;-90
2023/12/03 06:09:09;;;;;;;52.85;23.73;;;0.00;99.90;;;;;;5022347;28;20479;-90
2023/12/03 06:11:35;;;;;;;48.35;22.52;;;0.00;99.90;;;;;;5012981;28;20049;-90
2023/12/03 06:14:01;;;;;;;57.08;24.20;;;-0.10;99.90;;;;;;5015487;28;20113;-90
2023/12/03 06:16:27;;;;;;;57.53;22.95;;;-0.10;99.90;;;;;;5025617;28;20029;-90
2023/12/03 06:18:53;;;;;;;61.40;25.48;;;-0.10;99.90;;;;;;5009015;28;20481;-90
2023/12/03 06:21:18;;;;;;;53.30;23.52;;;-0.10;99.90;;;;;;5010382;28;20025;-90
2023/12/03 06:23:44;;;;;;;55.28;24.77;;;-0.20;99.90;;;;;;5014195;28;20060;-90
2023/12/03 06:26:09;;;;;;;59.10;25.30;;;-0.20;99.90;;;;;;5011295;28;20022;-90
2023/12/03 06:28:35;;;;;;;53.55;22.63;;;-0.20;99.90;;;;;;5014635;28;20034;-90
2023/12/03 06:31:01;;;;;;;55.30;23.90;;;-0.20;99.90;;;;;;5010933;28;20029;-90
2023/12/03 06:33:26;;;;;;;62.25;25.30;;;-0.30;99.90;;;;;;5010747;28;20390;-90
2023/12/03 06:35:53;;;;;;;60.95;23.70;;;-0.30;99.90;;;;;;5031876;28;20394;-90
2023/12/03 06:38:19;;;;;;;59.92;24.63;;;-0.40;99.90;;;;;;5010757;28;20120;-91
2023/12/03 06:40:45;;;;;;;60.28;24.70;;;-0.40;99.90;;;;;;5014210;28;20613;-90
2023/12/03 06:43:10;;;;;;;56.30;23.42;;;-0.40;99.90;;;;;;5014783;28;20119;-90
2023/12/03 06:45:37;;;;;;;66.30;26.15;;;-0.40;99.90;;;;;;5014729;28;20022;-90
2023/12/03 06:48:03;;;;;;;64.45;26.80;;;-0.40;99.90;;;;;;5030864;28;20034;-90
2023/12/03 06:50:29;;;;;;;69.40;27.27;;;-0.40;99.90;;;;;;5004560;28;20084;-90
2023/12/03 06:52:54;;;;;;;66.25;25.20;;;-0.50;99.90;;;;;;5006919;28;20029;-90
2023/12/03 06:55:20;;;;;;;63.22;26.90;;;-0.50;99.90;;;;;;5011771;28;20096;-90
2023/12/03 06:57:45;;;;;;;58.85;23.75;;;-0.50;99.90;;;;;;5012115;28;20032;-90
2023/12/03 07:00:11;;;;;;;61.83;24.73;;;-0.50;99.90;;;;;;5008634;28;20425;-91
2023/12/03 07:02:37;;;;;;;70.30;24.83;;;-0.60;99.90;;;;;;5012859;28;20078;-91
2023/12/03 07:05:04;;;;;;;65.20;25.77;;;-0.60;99.90;;;;;;5005218;28;20021;-90
2023/12/03 07:07:30;;;;;;;65.10;27.00;;;-0.70;99.90;;;;;;5022916;28;20033;-90
2023/12/03 07:09:56;;;;;;;66.45;26.98;;;-0.70;99.90;;;;;;5023495;28;20026;-91
2023/12/03 07:12:21;;;;;;;63.65;25.83;;;-0.70;99.90;;;;;;5009618;28;20487;-90
2023/12/03 07:14:47;;;;;;;67.28;24.73;;;-0.70;99.90;;;;;;5026205;28;20108;-91
2023/12/03 07:17:12;;;;;;;65.35;24.38;;;-0.70;99.90;;;;;;5017102;28;20033;-91
2023/12/03 07:19:43;;;;;;;67.53;25.65;;;-0.70;99.90;;;;;;5005102;28;20053;-92
2023/12/03 07:22:08;;;;;;;65.30;24.63;;;-0.60;99.90;;;;;;5016353;28;20029;-91
2023/12/03 07:24:34;;;;;;;75.55;26.30;;;-0.70;99.90;;;;;;5013920;28;20029;-90
2023/12/03 07:26:59;;;;;;;64.13;22.52;;;-0.70;99.90;;;;;;5011688;28;20092;-91
2023/12/03 07:29:25;;;;;;;57.35;22.55;;;-0.70;99.90;;;;;;5014975;28;20028;-92
2023/12/03 07:31:50;;;;;;;55.58;22.80;;;-0.70;99.90;;;;;;5024608;28;20316;-91
2023/12/03 07:34:16;;;;;;;69.38;24.33;;;-0.80;99.90;;;;;;5013775;28;20089;-91
2023/12/03 07:36:41;;;;;;;66.10;24.40;;;-0.80;99.90;;;;;;5017807;28;20026;-91
2023/12/03 07:39:08;;;;;;;64.60;23.67;;;-0.80;99.90;;;;;;5022417;28;20053;-92
2023/12/03 07:41:33;;;;;;;58.97;23.77;;;-0.80;99.90;;;;;;5034145;28;20105;-91
2023/12/03 07:43:59;;;;;;;66.82;23.40;;;-0.80;99.90;;;;;;5019574;28;20124;-90
2023/12/03 07:46:24;;;;;;;67.45;25.67;;;-0.80;99.90;;;;;;5014819;28;20042;-91
2023/12/03 07:48:50;;;;;;;70.65;24.98;;;-0.80;99.90;;;;;;5015003;28;20057;-90
2023/12/03 07:51:15;;;;;;;64.10;24.90;;;-0.80;99.90;;;;;;5017323;28;20029;-90
2023/12/03 07:53:41;;;;;;;59.50;24.60;;;-0.80;99.90;;;;;;5012622;28;20083;-90
2023/12/03 07:56:07;;;;;;;51.53;20.48;;;-0.70;99.90;;;;;;5009641;28;20030;-90
2023/12/03 07:58:34;;;;;;;53.17;21.73;;;-0.80;99.90;;;;;;5012504;28;20032;-91
2023/12/03 08:01:00;;;;;;;71.82;23.35;;;-0.80;99.90;;;;;;5016497;28;20040;-90
2023/12/03 08:03:26;;;;;;;62.70;25.45;;;-0.70;99.90;;;;;;5023632;28;20057;-91
2023/12/03 08:05:51;;;;;;;58.75;22.15;;;-0.70;99.90;;;;;;5015885;28;20057;-91
2023/12/03 08:08:17;;;;;;;62.33;23.17;;;-0.70;99.90;;;;;;5015654;28;20033;-92
2023/12/03 08:10:42;;;;;;;56.50;23.00;;;-0.70;99.90;;;;;;5034098;28;20067;-91
2023/12/03 08:13:08;;;;;;;56.17;20.73;;;-0.60;99.90;;;;;;5034708;28;20037;-91
2023/12/03 08:15:33;;;;;;;60.28;23.30;;;-0.60;99.90;;;;;;5022253;28;20021;-91
2023/12/03 08:17:59;;;;;;;60.88;21.25;;;-0.60;99.90;;;;;;5043934;28;20720;-92
2023/12/03 08:20:25;;;;;;;57.70;21.83;;;-0.60;99.90;;;;;;5027143;28;20108;-92
2023/12/03 08:22:50;;;;;;;60.45;23.20;;;-0.60;99.90;;;;;;5017563;28;20060;-91
2023/12/03 08:25:16;;;;;;;67.20;24.15;;;-0.50;99.90;;;;;;5023242;28;20041;-91
2023/12/03 08:27:42;;;;;;;67.85;23.85;;;-0.50;99.90;;;;;;5021317;28;20037;-91
2023/12/03 08:30:08;;;;;;;60.35;22.48;;;-0.50;99.90;;;;;;5022427;28;20029;-91
2023/12/03 08:32:34;;;;;;;73.40;24.70;;;-0.40;99.90;;;;;;5018530;28;20034;-92
2023/12/03 08:35:00;;;;;;;57.35;22.25;;;-0.40;99.90;;;;;;5022072;28;20072;-91
2023/12/03 08:37:25;;;;;;;61.63;24.33;;;-0.40;99.90;;;;;;5022546;28;20022;-90
2023/12/03 08:39:51;;;;;;;58.63;23.85;;;-0.40;99.90;;;;;;5022401;28;20053;-91
2023/12/03 08:42:18;;;;;;;65.28;25.15;;;-0.30;99.90;;;;;;5019328;28;20026;-91
2023/12/03 08:44:44;;;;;;;60.72;24.10;;;-0.30;99.90;;;;;;5023096;28;20040;-91
2023/12/03 08:47:09;;;;;;;64.05;23.48;;;-0.20;99.90;;;;;;5022980;28;20025;-91
2023/12/03 08:49:35;;;;;;;56.20;19.98;;;-0.10;99.90;;;;;;5019600;28;20024;-92
2023/12/03 08:52:00;;;;;;;55.45;21.52;;;-0.20;99.90;;;;;;5022048;28;20029;-91
2023/12/03 08:54:26;;;;;;;57.88;23.02;;;-0.20;99.90;;;;;;5017784;28;20296;-90
2023/12/03 08:56:52;;;;;;;60.90;21.98;;;-0.10;99.90;;;;;;5011837;28;20367;-91
2023/12/03 08:59:19;;;;;;;58.50;21.00;;;-0.20;99.90;;;;;;5013052;28;20030;-91
2023/12/03 09:01:45;;;;;;;67.55;24.52;;;0.00;99.90;;;;;;5009518;28;20029;-91
2023/12/03 09:04:12;;;;;;;56.83;21.20;;;-0.10;99.90;;;;;;5012748;28;20117;-90
2023/12/03 09:06:39;;;;;;;57.80;22.90;;;-0.10;99.90;;;;;;5017269;28;20072;-91
2023/12/03 09:09:05;;;;;;;53.70;21.90;;;0.00;99.90;;;;;;5012626;28;20520;-91
2023/12/03 09:11:31;;;;;;;55.85;20.88;;;0.00;99.90;;;;;;5026910;28;20029;-91
2023/12/03 09:13:56;;;;;;;48.80;19.63;;;0.00;99.90;;;;;;5013976;28;20040;-91
2023/12/03 09:16:22;;;;;;;49.55;20.45;;;0.00;99.90;;;;;;5013550;28;20022;-91
2023/12/03 09:18:48;;;;;;;50.72;20.08;;;0.00;99.90;;;;;;5011794;28;20033;-91
2023/12/03 09:21:13;;;;;;;45.25;18.77;;;0.00;99.90;;;;;;5013516;28;20017;-91
2023/12/03 09:23:39;;;;;;;46.13;18.92;;;0.10;99.90;;;;;;5011214;28;20030;-91
2023/12/03 09:26:05;;;;;;;59.83;21.13;;;0.10;99.90;;;;;;5009668;28;20029;-91
2023/12/03 09:28:32;;;;;;;55.83;20.67;;;0.20;99.90;;;;;;5007992;28;20037;-92
2023/12/03 09:30:58;;;;;;;52.60;20.77;;;0.20;99.90;;;;;;5014363;28;20033;-91
2023/12/03 09:33:28;;;;;;;53.33;22.10;;;0.30;99.90;;;;;;5025787;28;20508;-90
2023/12/03 09:35:55;;;;;;;55.17;21.13;;;0.40;99.90;;;;;;5015162;28;20067;-90
2023/12/03 09:38:22;;;;;;;52.88;20.20;;;0.50;99.90;;;;;;5005079;28;20429;-90
2023/12/03 09:40:48;;;;;;;47.78;20.65;;;0.50;99.90;;;;;;5029895;28;20033;-91
2023/12/03 09:43:18;;;;;;;44.78;18.70;;;0.50;99.90;;;;;;5009576;28;20033;-91
2023/12/03 09:45:45;;;;;;;44.15;18.60;;;0.60;99.90;;;;;;5010416;28;20068;-90
2023/12/03 09:48:13;;;;;;;49.17;18.88;;;0.70;99.90;;;;;;5015545;28;20113;-89
2023/12/03 09:50:45;;;;;;;42.42;17.70;;;0.70;99.90;;;;;;5013081;28;20022;-91
2023/12/03 09:53:12;;;;;;;48.85;18.58;;;0.80;99.90;;;;;;5006746;28;20140;-91
2023/12/03 09:55:40;;;;;;;43.35;18.02;;;0.90;99.90;;;;;;5019080;28;20075;-91
2023/12/03 09:58:09;;;;;;;42.95;18.83;;;0.90;99.90;;;;;;5008609;28;20477;-91
2023/12/03 10:00:38;;;;;;;43.58;18.98;;;1.00;99.90;;;;;;5013457;28;20030;-91
2023/12/03 10:03:04;;;;;;;46.10;20.80;;;1.00;99.90;;;;;;5014053;28;20397;-91
2023/12/03 10:05:31;;;;;;;45.70;18.67;;;1.10;99.90;;;;;;5015254;28;20033;-91
2023/12/03 10:07:57;;;;;;;43.28;19.00;;;1.10;99.90;;;;;;5000213;28;20065;-91
2023/12/03 10:10:28;;;;;;;37.72;17.65;;;1.30;99.90;;;;;;4995885;28;20026;-91
2023/12/03 10:12:55;;;;;;;43.58;17.70;;;1.40;99.90;;;;;;5014309;28;20029;-90
2023/12/03 10:15:21;;;;;;;43.03;18.80;;;1.50;99.90;;;;;;5014388;28;20059;-91
2023/12/03 10:17:49;;;;;;;39.83;18.85;;;1.60;99.90;;;;;;5015003;28;20021;-90
2023/12/03 10:20:22;;;;;;;39.97;16.98;;;1.50;99.90;;;;;;5014952;28;20029;-91
2023/12/03 10:22:49;;;;;;;40.42;17.90;;;1.50;99.90;;;;;;5011223;28;20076;-92
2023/12/03 10:25:27;;;;;;;38.90;16.88;;;1.50;99.90;;;;;;5031635;28;20033;-92
2023/12/03 10:27:54;;;;;;;39.80;16.20;;;1.40;99.90;;;;;;5013943;28;20133;-91
2023/12/03 10:30:20;;;;;;;43.38;18.20;;;1.40;99.90;;;;;;5013114;28;20029;-91
2023/12/03 10:32:46;;;;;;;42.17;16.98;;;1.40;99.90;;;;;;5008469;28;20029;-91
2023/12/03 10:35:11;;;;;;;42.67;18.15;;;1.40;99.90;;;;;;5007267;28;20386;-91
2023/12/03 10:37:38;;;;;;;42.72;17.92;;;1.50;99.90;;;;;;5027120;28;20478;-90
2023/12/03 10:40:04;;;;;;;40.00;16.67;;;1.50;99.90;;;;;;5010987;28;20033;-91
2023/12/03 10:42:35;;;;;;;40.17;16.33;;;1.60;99.90;;;;;;5031499;28;20112;-91
2023/12/03 10:45:06;;;;;;;42.20;17.08;;;1.60;99.90;;;;;;5007180;28;20386;-90
2023/12/03 10:47:33;;;;;;;35.55;14.93;;;1.60;99.90;;;;;;5021838;28;20052;-90
2023/12/03 10:50:00;;;;;;;35.95;15.75;;;1.60;99.90;;;;;;5006789;28;20500;-90
2023/12/03 10:52:30;;;;;;;36.92;16.55;;;1.70;99.90;;;;;;5014183;28;20025;-90
2023/12/03 10:54:55;;;;;;;36.83;15.25;;;1.70;99.90;;;;;;5011773;28;20491;-91
2023/12/03 10:57:23;;;;;;;35.78;16.42;;;1.70;99.90;;;;;;5006458;28;20037;-91
2023/12/03 10:59:53;;;;;;;31.42;13.10;;;1.80;99.90;;;;;;5004933;28;20052;-90
2023/12/03 11:02:25;;;;;;;35.63;15.73;;;1.80;99.90;;;;;;5004826;28;21908;-91
2023/12/03 11:05:01;;;;;;;35.03;14.57;;;1.90;99.90;;;;;;5011551;28;20068;-91
2023/12/03 11:07:30;;;;;;;33.22;15.10;;;1.80;99.90;;;;;;5010257;28;20135;-89
2023/12/03 11:09:57;;;;;;;36.75;15.73;;;1.80;99.90;;;;;;5029049;28;21667;-90
2023/12/03 11:12:23;;;;;;;29.85;14.23;;;1.90;99.90;;;;;;5008725;28;20061;-89
2023/12/03 11:14:51;;;;;;;32.22;13.98;;;1.80;99.90;;;;;;5012961;28;20481;-90
2023/12/03 11:17:40;;;;;;;35.50;14.73;;;1.90;99.90;;;;;;5030512;28;20084;-90
2023/12/03 11:20:10;;;;;;;34.42;14.45;;;1.90;99.90;;;;;;5030938;28;20025;-90
2023/12/03 11:23:06;;;;;;;32.90;14.50;;;2.00;99.90;;;;;;5013693;28;20017;-89
2023/12/03 11:25:38;;;;;;;32.72;15.13;;;2.10;99.90;;;;;;5009892;28;20021;-88
2023/12/03 11:28:04;;;;;;;33.25;14.95;;;2.10;99.90;;;;;;5016535;28;20040;-90
2023/12/03 11:30:38;;;;;;;33.45;15.60;;;2.10;99.90;;;;;;5014769;28;20497;-89
2023/12/03 11:33:11;;;;;;;32.42;14.10;;;2.10;99.90;;;;;;5013803;28;20026;-89
2023/12/03 11:35:42;;;;;;;34.38;15.45;;;2.10;99.90;;;;;;5018909;28;20022;-89
2023/12/03 11:38:28;;;;;;;30.38;13.75;;;2.10;99.90;;;;;;5019241;28;20107;-90
2023/12/03 11:40:54;;;;;;;31.83;13.45;;;2.20;99.90;;;;;;5010468;28;20385;-89
2023/12/03 11:43:28;;;;;;;35.72;15.00;;;2.20;99.90;;;;;;5017437;28;20485;-89
2023/12/03 11:45:54;;;;;;;33.28;14.32;;;2.20;99.90;;;;;;5034778;28;20025;-89
2023/12/03 11:48:20;;;;;;;34.28;14.90;;;2.20;99.90;;;;;;5031662;28;20374;-89
2023/12/03 11:50:48;;;;;;;30.92;14.15;;;2.20;99.90;;;;;;5013858;28;20017;-88
2023/12/03 11:53:15;;;;;;;26.90;12.77;;;2.20;99.90;;;;;;5015606;28;20025;-89
2023/12/03 11:55:45;;;;;;;32.25;13.60;;;2.20;99.90;;;;;;5006460;28;20037;-89
2023/12/03 11:58:11;;;;;;;32.58;14.18;;;2.20;99.90;;;;;;5008286;28;20025;-88
2023/12/03 12:00:38;;;;;;;33.33;14.27;;;2.20;99.90;;;;;;5025747;28;20109;-89
2023/12/03 12:03:06;;;;;;;27.73;13.05;;;2.30;99.90;;;;;;5025025;28;20036;-89
2023/12/03 12:05:33;;;;;;;31.85;14.55;;;2.40;99.90;;;;;;5016154;28;20029;-89
2023/12/03 12:08:03;;;;;;;34.08;14.00;;;2.50;99.90;;;;;;5017484;28;20037;-89
2023/12/03 12:10:31;;;;;;;35.50;15.02;;;2.50;99.90;;;;;;5008612;28;20555;-87
2023/12/03 12:12:58;;;;;;;32.83;14.55;;;2.60;99.90;;;;;;5007616;28;20041;-90
2023/12/03 12:15:24;;;;;;;33.05;14.13;;;2.70;99.90;;;;;;5015352;28;20048;-89
2023/12/03 12:17:49;;;;;;;31.05;13.35;;;2.80;99.90;;;;;;5016206;28;20072;-90
2023/12/03 12:20:42;;;;;;;30.85;14.35;;;2.80;99.90;;;;;;5022422;28;20071;-89
2023/12/03 12:23:08;;;;;;;28.52;13.07;;;2.90;99.90;;;;;;5015261;28;20053;-90
2023/12/03 12:25:34;;;;;;;28.75;13.65;;;2.90;99.90;;;;;;5019971;28;20084;-89
2023/12/03 12:28:00;;;;;;;31.02;13.93;;;2.90;99.90;;;;;;5022729;28;20033;-89
2023/12/03 12:30:30;;;;;;;28.30;13.25;;;2.90;99.90;;;;;;5024506;28;20108;-89